Time;durP1;ratioP1;P1;durP2;ratioP2;P2;SDS_P1;SDS_P2;PMS_P1;PMS_P2;Temp;Humidity;BMP_temperature;BMP_pressure;BME280_temperature;BME280_humidity;BME280_pressure;Samples;Min_cycle;Max_cycle;Signal;HPM_P1;HPM_P2
2023/12/23 00:00:18;;;;;;;5.37;4.23;;;3.90;99.90;;;;;;6292560;28;20626;-61
2023/12/23 00:03:19;;;;;;;4.90;4.40;;;3.90;99.90;;;;;;6308985;28;20202;-61
2023/12/23 00:06:19;;;;;;;8.23;6.20;;;4.00;99.90;;;;;;6296725;28;20216;-61
2023/12/23 00:09:20;;;;;;;6.53;5.93;;;4.00;99.90;;;;;;6297264;28;20192;-61
2023/12/23 00:12:21;;;;;;;5.43;4.93;;;4.10;99.90;;;;;;6305604;28;20194;-61
2023/12/23 00:15:21;;;;;;;3.67;3.23;;;4.10;99.90;;;;;;6289403;28;20184;-61
2023/12/23 00:18:22;;;;;;;4.70;2.20;;;4.20;99.90;;;;;;6301276;28;20205;-61
2023/12/23 00:21:23;;;;;;;3.47;2.57;;;4.20;99.90;;;;;;6296453;28;20210;-61
2023/12/23 00:24:29;;;;;;;3.37;2.47;;;4.30;99.90;;;;;;6304115;28;20192;-61
2023/12/23 00:27:30;;;;;;;3.50;2.40;;;4.30;99.90;;;;;;6304676;28;20296;-61
2023/12/23 00:30:30;;;;;;;2.50;1.70;;;4.30;99.90;;;;;;6295346;28;20187;-61
2023/12/23 00:33:31;;;;;;;3.27;1.67;;;4.40;99.90;;;;;;6315816;28;20278;-61
2023/12/23 00:36:32;;;;;;;1.90;1.70;;;4.40;99.90;;;;;;6293806;28;20202;-60
2023/12/23 00:39:33;;;;;;;1.27;1.17;;;4.50;99.90;;;;;;6309181;28;20191;-61
2023/12/23 00:42:33;;;;;;;2.33;1.70;;;4.50;99.90;;;;;;6286532;28;20188;-60
2023/12/23 00:45:34;;;;;;;1.40;1.30;;;4.50;99.90;;;;;;6291625;28;20242;-61
2023/12/23 00:48:35;;;;;;;1.60;1.30;;;4.60;99.90;;;;;;6298679;28;20181;-60
2023/12/23 00:51:35;;;;;;;1.20;1.10;;;4.60;99.90;;;;;;6310623;28;20180;-61
2023/12/23 00:54:36;;;;;;;1.57;1.20;;;4.70;99.90;;;;;;6334683;28;20594;-61
2023/12/23 00:57:37;;;;;;;1.43;1.10;;;;;;;;;;6320447;28;20255;-61
2023/12/23 01:00:38;;;;;;;1.10;1.00;;;24.00;50.00;;;;;;6316646;28;20180;-61
2023/12/23 01:03:39;;;;;;;1.23;1.00;;;4.70;99.90;;;;;;6311937;28;20202;-61
2023/12/23 01:06:39;;;;;;;1.23;1.13;;;4.80;99.90;;;;;;6311284;28;20240;-62
2023/12/23 01:09:40;;;;;;;1.40;0.80;;;4.80;99.90;;;;;;6283993;28;20184;-61
2023/12/23 01:12:41;;;;;;;0.87;0.80;;;4.90;99.90;;;;;;6303248;28;20180;-61
2023/12/23 01:15:42;;;;;;;1.23;0.90;;;4.90;99.90;;;;;;6308175;28;20205;-62
2023/12/23 01:18:43;;;;;;;5.17;2.43;;;4.90;99.90;;;;;;6301276;28;20188;-61
2023/12/23 01:21:44;;;;;;;0.87;0.83;;;5.00;99.90;;;;;;6315392;28;20216;-61
2023/12/23 01:24:44;;;;;;;1.80;1.03;;;5.00;99.90;;;;;;6298472;28;20219;-61
2023/12/23 01:27:45;;;;;;;0.80;0.80;;;5.00;99.90;;;;;;6312636;28;20235;-61
2023/12/23 01:30:46;;;;;;;0.77;0.70;;;5.00;99.90;;;;;;6294937;28;20176;-62
2023/12/23 01:33:46;;;;;;;0.80;0.80;;;5.00;99.90;;;;;;6295410;28;20196;-61
2023/12/23 01:36:47;;;;;;;0.63;0.63;;;5.00;99.90;;;;;;6304505;28;20196;-61
2023/12/23 01:39:48;;;;;;;0.80;0.80;;;5.00;99.90;;;;;;6300851;28;20273;-61
2023/12/23 01:42:48;;;;;;;0.93;0.90;;;5.00;99.90;;;;;;6293388;28;20220;-62
2023/12/23 01:45:53;;;;;;;0.90;0.90;;;5.00;99.90;;;;;;6299859;28;20235;-61
2023/12/23 01:48:55;;;;;;;0.80;0.80;;;5.10;99.90;;;;;;6317086;28;20198;-61
2023/12/23 01:51:59;;;;;;;0.77;0.77;;;5.10;99.90;;;;;;6298826;28;20195;-61
2023/12/23 01:55:00;;;;;;;0.53;0.53;;;;;;;;;;6323676;28;20328;-61
2023/12/23 01:58:01;;;;;;;0.63;0.63;;;;;;;;;;6316556;28;20195;-61
2023/12/23 02:01:03;;;;;;;0.80;0.80;;;;;;;;;;6341039;27;20645;-61
2023/12/23 02:04:04;;;;;;;0.80;0.80;;;;;;;;;;6341378;27;20191;-61
2023/12/23 02:07:05;;;;;;;0.73;0.63;;;;;;;;;;6341089;27;20214;-61
2023/12/23 02:10:07;;;;;;;0.87;0.77;;;;;;;;;;6356832;27;20562;-61
2023/12/23 02:13:17;;;;;;;0.90;0.60;;;;;;;;;;6354057;27;20630;-61
2023/12/23 02:16:18;;;;;;;0.77;0.73;;;;;;;;;;6357424;27;20191;-61
2023/12/23 02:19:19;;;;;;;1.57;0.80;;;;;;;;;;6341011;27;20191;-62
2023/12/23 02:22:20;;;;;;;0.90;0.80;;;;;;;;;;6341597;27;20233;-62
2023/12/23 02:25:22;;;;;;;0.90;0.80;;;;;;;;;;6340733;27;20218;-61
2023/12/23 02:28:23;;;;;;;1.30;1.00;;;;;;;;;;6341137;27;20554;-61
2023/12/23 02:31:24;;;;;;;1.23;0.80;;;;;;;;;;6340692;27;20191;-61
2023/12/23 02:34:25;;;;;;;0.60;0.60;;;;;;;;;;6340957;27;20183;-61
2023/12/23 02:37:26;;;;;;;0.73;0.70;;;;;;;;;;6348566;27;20187;-61
2023/12/23 02:40:28;;;;;;;0.50;0.50;;;;;;;;;;6340283;27;20191;-61
2023/12/23 02:43:29;;;;;;;0.67;0.60;;;;;;;;;;6340957;27;20639;-61
2023/12/23 02:46:30;;;;;;;0.50;0.50;;;;;;;;;;6340323;27;20301;-61
2023/12/23 02:49:31;;;;;;;0.97;0.60;;;;;;;;;;6349078;27;20665;-62
2023/12/23 02:52:32;;;;;;;0.70;0.70;;;;;;;;;;6356527;27;20294;-62
2023/12/23 02:55:33;;;;;;;0.47;0.47;;;;;;;;;;6339358;27;20209;-61
2023/12/23 02:58:35;;;;;;;1.10;0.60;;;;;;;;;;6340087;27;20187;-61
2023/12/23 03:01:36;;;;;;;0.70;0.70;;;;;;;;;;6335520;27;20219;-61
2023/12/23 03:04:37;;;;;;;0.80;0.80;;;;;;;;;;6339882;27;20186;-61
2023/12/23 03:07:38;;;;;;;0.67;0.67;;;;;;;;;;6339506;27;20238;-61
2023/12/23 03:10:39;;;;;;;0.50;0.50;;;;;;;;;;6340519;27;20238;-61
2023/12/23 03:13:40;;;;;;;1.47;0.90;;;;;;;;;;6332044;28;20257;-61
2023/12/23 03:16:41;;;;;;;0.70;0.70;;;;;;;;;;6338797;27;20212;-61
2023/12/23 03:19:42;;;;;;;0.60;0.50;;;;;;;;;;6356627;27;20190;-61
2023/12/23 03:22:43;;;;;;;0.70;0.70;;;;;;;;;;6340345;27;20282;-61
2023/12/23 03:25:44;;;;;;;0.50;0.50;;;;;;;;;;6339480;27;20282;-61
2023/12/23 03:28:45;;;;;;;2.83;0.50;;;;;;;;;;6339797;27;20183;-61
2023/12/23 03:31:46;;;;;;;0.30;0.30;;;;;;;;;;6339540;27;20191;-61
2023/12/23 03:34:47;;;;;;;1.53;0.50;;;;;;;;;;6339637;27;20190;-61
2023/12/23 03:37:48;;;;;;;0.40;0.40;;;;;;;;;;6339870;27;20191;-61
2023/12/23 03:40:49;;;;;;;0.50;0.50;;;;;;;;;;6339294;27;20182;-61
2023/12/23 03:43:50;;;;;;;0.83;0.67;;;;;;;;;;6339216;27;20234;-61
2023/12/23 03:46:52;;;;;;;0.73;0.47;;;;;;;;;;6339177;27;20207;-61
2023/12/23 03:49:53;;;;;;;0.97;0.70;;;;;;;;;;6353844;27;20205;-61
2023/12/23 03:52:54;;;;;;;0.40;0.40;;;;;;;;;;6332451;27;20219;-61
2023/12/23 03:55:55;;;;;;;0.50;0.50;;;;;;;;;;6338663;28;20190;-61
2023/12/23 03:58:58;;;;;;;0.97;0.60;;;;;;;;;;6338827;28;20187;-61
2023/12/23 04:01:59;;;;;;;1.03;0.37;;;;;;;;;;6339940;28;20199;-61
2023/12/23 04:05:00;;;;;;;0.70;0.43;;;;;;;;;;6335995;28;20246;-61
2023/12/23 04:08:01;;;;;;;0.50;0.50;;;;;;;;;;6328799;28;20286;-61
2023/12/23 04:11:02;;;;;;;1.20;0.50;;;;;;;;;;6336758;28;20261;-60
2023/12/23 04:14:04;;;;;;;0.40;0.40;;;;;;;;;;6338162;28;20197;-61
2023/12/23 04:17:04;;;;;;;0.30;0.30;;;5.10;99.90;;;;;;6338828;27;20187;-60
2023/12/23 04:20:06;;;;;;;0.40;0.40;;;5.30;99.90;;;;;;6334740;27;20266;-61
2023/12/23 04:23:07;;;;;;;1.07;0.40;;;5.40;99.90;;;;;;6344891;27;20179;-61
2023/12/23 04:26:10;;;;;;;0.30;0.30;;;5.40;99.90;;;;;;6326256;27;20214;-61
2023/12/23 04:29:12;;;;;;;0.73;0.50;;;5.40;99.90;;;;;;6317716;27;20270;-61
2023/12/23 04:32:13;;;;;;;0.50;0.50;;;5.50;99.90;;;;;;6376367;27;20270;-61
2023/12/23 04:35:14;;;;;;;0.60;0.60;;;;;;;;;;6349434;27;20194;-61
2023/12/23 04:38:16;;;;;;;0.50;0.50;;;;;;;;;;6343808;27;20191;-61
2023/12/23 04:41:17;;;;;;;0.60;0.60;;;;;;;;;;6360355;27;20208;-61
2023/12/23 04:44:18;;;;;;;0.50;0.50;;;;;;;;;;6343382;27;20703;-61
2023/12/23 04:47:19;;;;;;;0.60;0.60;;;;;;;;;;6343460;27;20267;-61
2023/12/23 04:50:20;;;;;;;0.60;0.60;;;;;;;;;;6340462;27;20191;-61
2023/12/23 04:53:22;;;;;;;0.73;0.73;;;;;;;;;;6343277;27;20184;-61
2023/12/23 04:56:23;;;;;;;0.73;0.73;;;;;;;;;;6350852;27;20183;-61
2023/12/23 04:59:25;;;;;;;1.07;0.70;;;;;;;;;;6339628;27;20202;-62
2023/12/23 05:02:26;;;;;;;1.53;1.03;;;;;;;;;;6342419;27;20195;-61
2023/12/23 05:05:27;;;;;;;1.10;1.00;;;;;;;;;;6335671;27;20211;-61
2023/12/23 05:08:28;;;;;;;0.80;0.80;;;;;;;;;;6343214;27;20191;-61
2023/12/23 05:11:29;;;;;;;1.50;0.93;;;;;;;;;;6341089;27;20217;-61
2023/12/23 05:14:30;;;;;;;2.30;0.90;;;;;;;;;;6340544;27;20191;-61
2023/12/23 05:17:31;;;;;;;2.00;1.03;;;;;;;;;;6357663;27;20187;-60
2023/12/23 05:20:32;;;;;;;1.00;0.90;;;;;;;;;;6342381;27;20186;-61
2023/12/23 05:23:33;;;;;;;0.80;0.80;;;;;;;;;;6342388;27;20194;-60
2023/12/23 05:26:34;;;;;;;0.73;0.73;;;;;;;;;;6342432;27;20211;-61
2023/12/23 05:29:36;;;;;;;1.43;0.60;;;;;;;;;;6340959;27;20214;-64
2023/12/23 05:32:37;;;;;;;0.70;0.70;;;;;;;;;;6342535;27;20216;-63
2023/12/23 05:35:38;;;;;;;1.07;0.87;;;;;;;;;;6341765;27;20195;-61
2023/12/23 05:38:39;;;;;;;1.93;1.10;;;;;;;;;;6342750;27;20202;-61
2023/12/23 05:41:40;;;;;;;1.07;0.70;;;;;;;;;;6346216;27;20186;-60
2023/12/23 05:44:41;;;;;;;0.80;0.73;;;;;;;;;;6357961;27;20273;-60
2023/12/23 05:47:43;;;;;;;0.90;0.90;;;;;;;;;;6358367;27;20179;-61
2023/12/23 05:50:44;;;;;;;0.97;0.93;;;;;;;;;;6349819;28;20239;-61
2023/12/23 05:53:45;;;;;;;1.20;0.80;;;;;;;;;;6340571;27;20285;-61
2023/12/23 05:56:46;;;;;;;1.40;0.93;;;;;;;;;;6341404;27;20201;-60
2023/12/23 05:59:47;;;;;;;1.00;0.90;;;;;;;;;;6341117;27;20191;-61
2023/12/23 06:02:48;;;;;;;0.83;0.83;;;;;;;;;;6341203;27;20197;-62
2023/12/23 06:05:49;;;;;;;0.80;0.80;;;;;;;;;;6341598;27;20210;-61
2023/12/23 06:08:50;;;;;;;3.50;1.70;;;;;;;;;;6351629;27;20188;-61
2023/12/23 06:11:51;;;;;;;2.90;1.60;;;5.50;99.90;;;;;;6356311;27;20194;-61
2023/12/23 06:14:54;;;;;;;1.47;1.37;;;5.40;99.90;;;;;;6339946;27;20244;-61
2023/12/23 06:17:55;;;;;;;1.87;1.43;;;5.50;99.90;;;;;;6325220;27;20195;-60
2023/12/23 06:20:55;;;;;;;1.13;0.77;;;5.40;99.90;;;;;;6316350;27;20195;-60
2023/12/23 06:23:56;;;;;;;5.13;1.00;;;5.40;99.90;;;;;;6322849;27;20191;-59
2023/12/23 06:26:57;;;;;;;0.83;0.70;;;5.40;99.90;;;;;;6326645;27;20207;-62
2023/12/23 06:29:57;;;;;;;1.13;0.63;;;5.30;99.90;;;;;;6334656;27;20204;-59
2023/12/23 06:32:58;;;;;;;9.53;1.20;;;5.30;99.90;;;;;;6332297;27;20278;-59
2023/12/23 06:35:59;;;;;;;0.67;0.67;;;5.30;99.90;;;;;;6323677;27;20289;-59
2023/12/23 06:38:59;;;;;;;1.60;1.23;;;5.30;99.90;;;;;;6337955;27;20187;-60
2023/12/23 06:42:00;;;;;;;2.17;1.20;;;5.30;99.90;;;;;;6341907;27;20192;-59
2023/12/23 06:45:01;;;;;;;1.47;0.93;;;5.30;99.90;;;;;;6323703;27;20239;-61
2023/12/23 06:48:01;;;;;;;1.63;1.17;;;5.30;99.90;;;;;;6322468;27;20187;-60
2023/12/23 06:51:03;;;;;;;2.77;1.10;;;5.30;99.90;;;;;;6337529;27;20188;-60
2023/12/23 06:54:04;;;;;;;1.03;0.93;;;5.30;99.90;;;;;;6322213;27;20195;-60
2023/12/23 06:57:04;;;;;;;2.33;1.27;;;5.30;99.90;;;;;;6339840;27;20199;-60
2023/12/23 07:00:07;;;;;;;0.87;0.83;;;5.30;99.90;;;;;;6323790;27;20214;-61
2023/12/23 07:03:08;;;;;;;2.30;2.10;;;5.20;99.90;;;;;;6326942;27;20194;-63
2023/12/23 07:06:12;;;;;;;1.70;1.60;;;5.10;99.90;;;;;;6319614;27;20234;-59
2023/12/23 07:09:13;;;;;;;3.63;3.27;;;5.10;99.90;;;;;;6354736;27;20207;-59
2023/12/23 07:12:13;;;;;;;6.70;6.10;;;5.20;99.90;;;;;;6340431;27;20202;-60
2023/12/23 07:15:14;;;;;;;5.70;5.30;;;5.10;99.90;;;;;;6339728;27;20199;-60
2023/12/23 07:18:15;;;;;;;2.07;1.93;;;5.20;99.90;;;;;;6338935;27;20672;-59
2023/12/23 07:21:16;;;;;;;4.17;2.20;;;5.10;99.90;;;;;;6321940;27;20200;-59
2023/12/23 07:24:16;;;;;;;2.83;2.60;;;5.10;99.90;;;;;;6336791;27;20192;-59
2023/12/23 07:27:17;;;;;;;3.77;3.20;;;5.10;99.90;;;;;;6333128;27;20215;-59
2023/12/23 07:30:18;;;;;;;3.43;2.73;;;5.10;99.90;;;;;;6321997;27;20266;-59
2023/12/23 07:33:19;;;;;;;2.53;2.33;;;5.10;99.90;;;;;;6337823;27;20194;-59
2023/12/23 07:36:19;;;;;;;2.60;2.40;;;5.10;99.90;;;;;;6338123;27;20190;-60
2023/12/23 07:39:20;;;;;;;2.90;2.50;;;5.20;99.90;;;;;;6340864;27;20187;-60
2023/12/23 07:42:21;;;;;;;4.37;3.30;;;5.20;99.90;;;;;;6331171;27;20189;-59
2023/12/23 07:45:23;;;;;;;5.87;3.30;;;5.20;99.90;;;;;;6321080;27;20235;-59
2023/12/23 07:48:23;;;;;;;4.43;3.50;;;5.20;99.90;;;;;;6336904;27;20197;-60
2023/12/23 07:51:24;;;;;;;4.27;3.67;;;5.20;99.90;;;;;;6337648;27;20190;-60
2023/12/23 07:54:25;;;;;;;4.00;3.60;;;5.20;99.90;;;;;;6333109;27;20192;-59
2023/12/23 07:57:26;;;;;;;4.53;3.47;;;5.30;99.90;;;;;;6338190;28;20195;-59
2023/12/23 08:00:27;;;;;;;5.00;4.30;;;5.30;99.90;;;;;;6320754;28;20706;-59
2023/12/23 08:03:28;;;;;;;6.00;3.93;;;5.30;99.90;;;;;;6320021;28;20187;-59
2023/12/23 08:06:28;;;;;;;5.67;4.30;;;5.30;99.90;;;;;;6322152;28;20291;-59
2023/12/23 08:09:29;;;;;;;4.97;4.37;;;5.30;99.90;;;;;;6327058;28;20347;-59
2023/12/23 08:12:30;;;;;;;5.63;4.20;;;5.30;99.90;;;;;;6319699;28;20188;-59
2023/12/23 08:15:31;;;;;;;6.27;4.13;;;5.30;99.90;;;;;;6318606;28;20195;-59
2023/12/23 08:18:31;;;;;;;6.50;4.53;;;5.30;99.90;;;;;;6338145;28;20202;-59
2023/12/23 08:21:32;;;;;;;5.23;3.93;;;;;;;;;;6327066;28;20191;-59
2023/12/23 08:24:33;;;;;;;6.50;4.50;;;5.30;99.90;;;;;;6339182;28;20191;-60
2023/12/23 08:27:34;;;;;;;5.00;3.60;;;5.30;99.90;;;;;;6314472;28;20249;-60
2023/12/23 08:30:35;;;;;;;5.20;3.90;;;5.30;99.90;;;;;;6325607;28;20265;-60
2023/12/23 08:33:36;;;;;;;9.53;4.60;;;;;;;;;;6326436;28;20184;-60
2023/12/23 08:36:37;;;;;;;9.63;4.67;;;;;;;;;;6339012;28;20187;-60
2023/12/23 08:39:38;;;;;;;4.10;3.40;;;;;;;;;;6338687;28;20190;-60
2023/12/23 08:42:39;;;;;;;4.30;3.70;;;;;;;;;;6343445;28;20187;-60
2023/12/23 08:45:40;;;;;;;4.60;3.70;;;;;;;;;;6337102;28;20271;-60
2023/12/23 08:48:41;;;;;;;4.60;3.50;;;;;;;;;;6337716;28;20183;-60
2023/12/23 08:51:42;;;;;;;4.53;3.70;;;;;;;;;;6355861;28;20182;-61
2023/12/23 08:54:43;;;;;;;5.70;3.80;;;5.40;99.90;;;;;;6339183;28;20186;-61
2023/12/23 08:57:44;;;;;;;4.40;3.80;;;5.80;99.90;;;;;;6340574;28;20198;-61
2023/12/23 09:00:44;;;;;;;4.63;3.43;;;5.80;99.90;;;;;;6337894;28;20191;-62
2023/12/23 09:03:45;;;;;;;3.57;3.20;;;;;;;;;;6336621;27;20260;-63
2023/12/23 09:06:46;;;;;;;3.40;2.90;;;;;;;;;;6340595;27;20261;-63
2023/12/23 09:09:47;;;;;;;3.47;2.90;;;;;;;;;;6337957;27;20188;-62
2023/12/23 09:12:48;;;;;;;3.30;2.87;;;;;;;;;;6341590;27;20187;-62
2023/12/23 09:15:50;;;;;;;3.10;2.60;;;;;;;;;;6343851;27;20201;-61
2023/12/23 09:18:51;;;;;;;2.80;2.50;;;;;;;;;;6342631;27;20198;-62
2023/12/23 09:21:52;;;;;;;3.30;2.83;;;;;;;;;;6342984;27;20197;-61
2023/12/23 09:24:53;;;;;;;3.37;2.53;;;;;;;;;;6351479;28;20194;-62
2023/12/23 09:27:54;;;;;;;3.73;2.37;;;;;;;;;;6337599;27;20198;-62
2023/12/23 09:30:55;;;;;;;2.83;2.53;;;;;;;;;;6342199;27;20206;-60
2023/12/23 09:33:56;;;;;;;2.87;2.67;;;5.90;99.90;;;;;;6342466;27;20199;-60
2023/12/23 09:36:56;;;;;;;2.30;1.87;;;6.70;99.90;;;;;;6341672;27;20191;-67
2023/12/23 09:39:59;;;;;;;1.70;1.60;;;6.80;99.90;;;;;;6342372;27;20199;-68
2023/12/23 09:42:59;;;;;;;3.20;2.20;;;6.80;99.90;;;;;;6326108;27;20215;-67
2023/12/23 09:46:03;;;;;;;2.00;1.70;;;6.90;99.90;;;;;;6317683;27;20260;-68
2023/12/23 09:49:04;;;;;;;1.73;1.60;;;6.90;99.90;;;;;;6357419;27;20188;-67
2023/12/23 09:52:05;;;;;;;1.67;1.30;;;;;;;;;;6340597;27;20201;-68
2023/12/23 09:55:09;;;;;;;1.60;1.47;;;;;;;;;;6339819;27;20179;-67
2023/12/23 09:58:13;;;;;;;1.93;1.50;;;;;;;;;;6345425;27;20194;-67
2023/12/23 10:01:14;;;;;;;1.20;1.10;;;;;;;;;;6342164;27;20192;-67
2023/12/23 10:04:15;;;;;;;2.40;1.23;;;;;;;;;;6341405;27;20413;-68
2023/12/23 10:07:16;;;;;;;1.50;1.40;;;;;;;;;;6338736;27;20738;-68
2023/12/23 10:10:17;;;;;;;1.70;1.00;;;;;;;;;;6335610;27;20207;-68
2023/12/23 10:13:18;;;;;;;2.50;2.10;;;;;;;;;;6339309;27;20179;-67
2023/12/23 10:16:19;;;;;;;2.60;1.97;;;;;;;;;;6340737;27;20199;-63
2023/12/23 10:19:21;;;;;;;3.88;2.67;;;;;;;;;;6339466;27;20818;-62
2023/12/23 10:22:23;;;;;;;2.67;2.40;;;;;;;;;;6357098;27;20191;-61
2023/12/23 10:25:24;;;;;;;2.40;2.10;;;;;;;;;;6356293;27;20203;-61
2023/12/23 10:28:26;;;;;;;2.47;2.27;;;;;;;;;;6340030;27;20202;-61
2023/12/23 10:31:30;;;;;;;2.40;2.20;;;;;;;;;;6339339;27;20243;-61
2023/12/23 10:34:51;;;;;;;2.53;2.07;;;;;;;;;;6357272;27;20209;-60
2023/12/23 10:37:55;;;;;;;2.90;2.60;;;;;;;;;;6373065;27;20282;-61
2023/12/23 10:41:02;;;;;;;2.50;2.30;;;;;;;;;;6350813;27;20184;-64
2023/12/23 10:44:05;;;;;;;3.93;2.00;;;;;;;;;;6349002;28;20231;-62
2023/12/23 10:47:07;;;;;;;2.07;1.87;;;;;;;;;;6321793;28;20220;-62
2023/12/23 10:50:09;;;;;;;2.10;1.67;;;;;;;;;;6314037;28;20203;-60
2023/12/23 10:53:14;;;;;;;2.93;1.60;;;;;;;;;;6331759;28;20252;-61
2023/12/23 10:56:16;;;;;;;1.90;1.70;;;;;;;;;;6321990;28;20200;-61
2023/12/23 10:59:18;;;;;;;2.57;2.17;;;;;;;;;;6317392;28;20202;-61
2023/12/23 11:02:20;;;;;;;1.93;1.70;;;;;;;;;;6305834;28;20188;-61
2023/12/23 11:05:22;;;;;;;1.90;1.80;;;;;;;;;;6328868;28;20211;-61
2023/12/23 11:08:24;;;;;;;1.87;1.70;;;;;;;;;;6330275;28;20196;-61
2023/12/23 11:11:26;;;;;;;2.60;2.40;;;;;;;;;;6326823;28;20180;-62
2023/12/23 11:14:27;;;;;;;2.10;1.90;;;;;;;;;;6313390;28;20196;-62
2023/12/23 11:17:29;;;;;;;2.67;2.10;;;;;;;;;;6312159;28;20198;-61
2023/12/23 11:20:35;;;;;;;2.53;2.10;;;;;;;;;;6331596;28;20211;-62
2023/12/23 11:23:36;;;;;;;2.20;2.00;;;;;;;;;;6321490;28;20211;-62
2023/12/23 11:26:41;;;;;;;3.37;2.63;;;;;;;;;;6326592;28;20221;-63
2023/12/23 11:29:42;;;;;;;3.90;2.67;;;;;;;;;;6333919;27;20219;-61
2023/12/23 11:32:44;;;;;;;3.17;2.87;;;;;;;;;;6318523;28;20236;-61
2023/12/23 11:35:48;;;;;;;4.00;2.43;;;;;;;;;;6313738;28;20196;-63
2023/12/23 11:38:50;;;;;;;3.30;2.70;;;;;;;;;;6330565;28;20271;-61
2023/12/23 11:41:52;;;;;;;3.33;2.30;;;;;;;;;;6334623;28;20204;-63
2023/12/23 11:44:53;;;;;;;3.40;3.10;;;;;;;;;;6330814;28;20250;-62
2023/12/23 11:47:54;;;;;;;4.03;3.10;;;;;;;;;;6341255;27;20202;-61
2023/12/23 11:51:00;;;;;;;3.00;2.70;;;;;;;;;;6297462;28;20214;-62
2023/12/23 11:54:01;;;;;;;3.17;2.60;;;;;;;;;;6325792;28;20204;-61
2023/12/23 11:57:02;;;;;;;2.93;2.70;;;;;;;;;;6304429;28;20709;-61
2023/12/23 12:00:07;;;;;;;3.70;3.00;;;;;;;;;;6312614;28;20731;-61
2023/12/23 12:03:08;;;;;;;2.93;2.73;;;;;;;;;;6317188;28;20654;-61
2023/12/23 12:06:10;;;;;;;3.27;2.83;;;;;;;;;;6311371;28;20333;-61
2023/12/23 12:09:11;;;;;;;3.27;2.53;;;;;;;;;;6307158;28;20187;-61
2023/12/23 12:12:12;;;;;;;2.77;2.47;;;;;;;;;;6313397;28;20175;-62
2023/12/23 12:15:13;;;;;;;2.50;2.30;;;;;;;;;;6325861;28;20180;-61
2023/12/23 12:18:14;;;;;;;3.73;2.93;;;;;;;;;;6327015;28;20184;-60
2023/12/23 12:21:15;;;;;;;3.13;2.80;;;;;;;;;;6328923;28;20176;-61
2023/12/23 12:24:17;;;;;;;3.20;2.60;;;;;;;;;;6312646;28;20206;-60
2023/12/23 12:27:18;;;;;;;3.23;2.93;;;;;;;;;;6327090;28;20216;-62
2023/12/23 12:30:20;;;;;;;3.43;2.53;;;;;;;;;;6323632;28;20211;-61
2023/12/23 12:33:21;;;;;;;2.63;2.43;;;;;;;;;;6312032;28;20195;-60
2023/12/23 12:36:22;;;;;;;3.03;2.33;;;;;;;;;;6327150;28;20188;-61
2023/12/23 12:39:23;;;;;;;3.10;2.60;;;;;;;;;;6314473;28;20187;-61
2023/12/23 12:42:25;;;;;;;2.63;2.00;;;;;;;;;;6313383;28;20188;-60
2023/12/23 12:45:26;;;;;;;2.30;1.93;;;7.00;99.90;;;;;;6317001;28;20240;-61
2023/12/23 12:48:27;;;;;;;2.83;2.37;;;8.80;88.50;;;;;;6302760;28;20227;-61
2023/12/23 12:51:28;;;;;;;3.90;2.60;;;9.00;86.30;;;;;;6332741;28;20631;-61
2023/12/23 12:54:29;;;;;;;3.03;2.73;;;8.90;86.30;;;;;;6306648;28;20276;-61
2023/12/23 12:57:30;;;;;;;3.47;2.60;;;9.00;78.90;;;;;;6306523;28;20179;-60
2023/12/23 13:00:31;;;;;;;3.47;2.67;;;8.90;82.00;;;;;;6317018;28;20180;-61
2023/12/23 13:03:32;;;;;;;2.90;2.60;;;8.90;79.40;;;;;;6335099;28;20179;-62
2023/12/23 13:06:33;;;;;;;4.57;2.50;;;8.90;79.60;;;;;;6303259;28;20219;-61
2023/12/23 13:09:33;;;;;;;4.40;2.87;;;8.80;80.20;;;;;;6293568;28;20180;-61
2023/12/23 13:12:35;;;;;;;3.20;2.57;;;8.60;79.40;;;;;;6297545;28;20195;-61
2023/12/23 13:15:36;;;;;;;3.87;2.90;;;8.60;82.50;;;;;;6305981;28;20198;-61
2023/12/23 13:18:36;;;;;;;3.23;2.93;;;8.60;84.00;;;;;;6328107;28;20252;-61
2023/12/23 13:21:37;;;;;;;5.20;3.20;;;8.70;81.80;;;;;;6291943;28;20187;-63
2023/12/23 13:24:38;;;;;;;4.30;3.63;;;8.60;81.80;;;;;;6332400;28;20180;-62
2023/12/23 13:27:38;;;;;;;5.50;3.57;;;8.80;81.20;;;;;;6308081;28;20200;-61
2023/12/23 13:30:39;;;;;;;3.87;3.57;;;8.70;80.80;;;;;;6299090;28;20185;-63
2023/12/23 13:33:40;;;;;;;4.60;3.47;;;8.60;77.70;;;;;;6293183;28;20187;-61
2023/12/23 13:36:40;;;;;;;3.87;3.50;;;8.60;78.60;;;;;;6278724;28;20203;-61
2023/12/23 13:39:41;;;;;;;4.00;3.60;;;8.60;83.70;;;;;;6301972;28;20192;-61
2023/12/23 13:42:42;;;;;;;4.13;3.73;;;8.60;79.00;;;;;;6303952;28;20211;-61
2023/12/23 13:45:42;;;;;;;4.67;3.83;;;8.50;78.60;;;;;;6299413;28;20263;-61
2023/12/23 13:48:43;;;;;;;4.23;3.70;;;8.50;81.50;;;;;;6315783;28;20267;-61
2023/12/23 13:51:44;;;;;;;4.03;3.63;;;8.50;83.60;;;;;;6305158;28;20330;-62
2023/12/23 13:54:45;;;;;;;4.53;4.10;;;8.40;80.70;;;;;;6306516;28;20231;-63
2023/12/23 13:57:45;;;;;;;4.20;3.80;;;8.40;80.80;;;;;;6301159;28;20283;-61
2023/12/23 14:00:46;;;;;;;5.00;4.30;;;8.40;80.00;;;;;;6306613;28;20195;-60
2023/12/23 14:03:47;;;;;;;5.30;4.30;;;8.40;80.90;;;;;;6315901;28;20271;-60
2023/12/23 14:06:48;;;;;;;5.50;5.00;;;8.40;80.70;;;;;;6300884;28;20211;-60
2023/12/23 14:09:49;;;;;;;5.63;5.07;;;8.40;80.50;;;;;;6296867;28;20195;-61
2023/12/23 14:12:49;;;;;;;5.00;4.50;;;8.40;80.10;;;;;;6294450;28;20195;-60
2023/12/23 14:15:50;;;;;;;5.10;4.40;;;8.30;80.60;;;;;;6301138;28;20249;-60
2023/12/23 14:18:52;;;;;;;5.37;4.03;;;8.30;83.20;;;;;;6307360;28;20218;-60
2023/12/23 14:21:52;;;;;;;4.67;4.27;;;8.30;82.80;;;;;;6315980;28;20199;-62
2023/12/23 14:24:55;;;;;;;6.00;4.33;;;8.30;81.70;;;;;;6316280;28;20329;-60
2023/12/23 14:27:55;;;;;;;5.70;4.30;;;8.20;82.70;;;;;;6276515;28;20235;-61
2023/12/23 14:30:56;;;;;;;5.70;4.33;;;8.10;81.20;;;;;;6314235;28;20685;-60
2023/12/23 14:33:57;;;;;;;4.80;4.30;;;8.00;82.80;;;;;;6301346;28;20189;-61
2023/12/23 14:36:57;;;;;;;4.73;4.03;;;7.90;84.40;;;;;;6287092;28;20180;-60
2023/12/23 14:39:58;;;;;;;5.20;4.10;;;;;;;;;;6299473;28;20191;-60
2023/12/23 14:42:59;;;;;;;5.30;4.10;;;;;;;;;;6314651;28;20211;-60
2023/12/23 14:46:01;;;;;;;4.90;4.40;;;;;;;;;;6302498;28;20260;-60
2023/12/23 14:49:02;;;;;;;5.57;5.00;;;;;;;;;;6314803;28;20179;-59
2023/12/23 14:52:03;;;;;;;4.60;4.20;;;;;;;;;;6314303;28;20183;-60
2023/12/23 14:55:04;;;;;;;7.43;5.33;;;;;;;;;;6309984;28;20191;-60
2023/12/23 14:58:05;;;;;;;7.33;5.10;;;;;;;;;;6309762;28;20278;-60
2023/12/23 15:01:06;;;;;;;5.30;4.77;;;;;;;;;;6289294;28;20192;-61
2023/12/23 15:04:07;;;;;;;5.60;4.50;;;;;;;;;;6310390;28;20195;-61
2023/12/23 15:07:08;;;;;;;7.83;4.33;;;;;;;;;;6314111;28;20215;-60
2023/12/23 15:10:09;;;;;;;5.77;3.90;;;;;;;;;;6309696;28;20188;-61
2023/12/23 15:13:10;;;;;;;4.83;4.33;;;;;;;;;;6313861;28;20661;-60
2023/12/23 15:16:11;;;;;;;3.90;3.43;;;;;;;;;;6304300;28;20291;-62
2023/12/23 15:19:12;;;;;;;4.40;4.00;;;;;;;;;;6316569;28;20187;-62
2023/12/23 15:22:14;;;;;;;5.10;4.47;;;;;;;;;;6307088;28;20196;-63
2023/12/23 15:25:16;;;;;;;6.40;5.30;;;;;;;;;;6313947;28;20195;-64
2023/12/23 15:28:17;;;;;;;4.10;3.70;;;;;;;;;;6306749;28;20188;-65
2023/12/23 15:31:18;;;;;;;5.23;4.00;;;;;;;;;;6330624;28;20174;-65
2023/12/23 15:34:19;;;;;;;5.17;4.23;;;;;;;;;;6302143;28;20191;-63
2023/12/23 15:37:35;;;;;;;3.33;2.90;;;;;;;;;;6310405;28;20188;-62
2023/12/23 15:40:36;;;;;;;2.40;1.47;;;;;;;;;;6331068;28;20192;-64
2023/12/23 15:43:37;;;;;;;2.78;1.80;;;;;;;;;;6327933;28;20744;-62
2023/12/23 15:46:38;;;;;;;2.07;1.50;;;;;;;;;;6327313;28;20252;-63
2023/12/23 15:49:40;;;;;;;0.40;0.40;;;;;;;;;;6309953;28;20222;-63
2023/12/23 15:52:41;;;;;;;0.30;0.30;;;;;;;;;;6312359;28;20275;-65
2023/12/23 15:55:42;;;;;;;0.83;0.83;;;;;;;;;;6313309;28;20190;-64
2023/12/23 15:58:43;;;;;;;0.33;0.33;;;;;;;;;;6330145;28;20194;-62
2023/12/23 16:01:45;;;;;;;0.20;0.20;;;;;;;;;;6313270;28;20196;-61
2023/12/23 16:04:46;;;;;;;0.90;0.20;;;;;;;;;;6313242;28;20232;-62
2023/12/23 16:07:47;;;;;;;1.50;0.40;;;;;;;;;;6329739;28;20203;-62
2023/12/23 16:10:48;;;;;;;0.20;0.20;;;;;;;;;;6312620;28;20188;-62
2023/12/23 16:13:49;;;;;;;0.40;0.33;;;;;;;;;;6314839;28;20187;-62
2023/12/23 16:16:50;;;;;;;0.27;0.27;;;;;;;;;;6319263;28;20199;-62
2023/12/23 16:19:51;;;;;;;0.20;0.20;;;;;;;;;;6317157;28;20264;-63
2023/12/23 16:22:52;;;;;;;0.40;0.40;;;;;;;;;;6317681;28;20187;-63
2023/12/23 16:25:53;;;;;;;0.20;0.20;;;;;;;;;;6334840;28;20205;-63
2023/12/23 16:28:54;;;;;;;0.30;0.30;;;;;;;;;;6315979;28;20183;-64
2023/12/23 16:31:55;;;;;;;0.30;0.30;;;;;;;;;;6313363;28;20187;-62
2023/12/23 16:34:56;;;;;;;0.10;0.10;;;;;;;;;;6317783;28;20187;-62
2023/12/23 16:37:57;;;;;;;0.73;0.30;;;;;;;;;;6314453;28;20658;-62
2023/12/23 16:40:58;;;;;;;0.20;0.20;;;;;;;;;;6311168;28;20236;-62
2023/12/23 16:43:59;;;;;;;0.20;0.20;;;;;;;;;;6314126;28;20256;-62
2023/12/23 16:47:00;;;;;;;0.30;0.30;;;;;;;;;;6310033;28;20207;-62
2023/12/23 16:50:02;;;;;;;0.93;0.27;;;;;;;;;;6300487;28;20182;-63
2023/12/23 16:53:03;;;;;;;2.70;0.40;;;;;;;;;;6318462;28;20203;-62
2023/12/23 16:56:04;;;;;;;0.83;0.43;;;;;;;;;;6332844;28;20187;-63
2023/12/23 16:59:05;;;;;;;0.33;0.33;;;;;;;;;;6333754;28;20192;-63
2023/12/23 17:02:06;;;;;;;0.70;0.20;;;;;;;;;;6313174;28;20197;-68
2023/12/23 17:05:08;;;;;;;1.43;0.90;;;;;;;;;;6314817;28;20203;-63
2023/12/23 17:08:09;;;;;;;0.27;0.27;;;;;;;;;;6317663;28;20646;-63